createdAt,value
2022-08-20T00:03:02.845Z,7.70
2022-08-20T00:08:07.909Z,8.32
2022-08-20T00:13:14.002Z,8.75
2022-08-20T00:18:21.893Z,9.43
2022-08-20T00:23:26.248Z,9.02
2022-08-20T00:28:28.728Z,8.85
2022-08-20T00:33:34.961Z,9.30
2022-08-20T00:38:39.952Z,9.93
2022-08-20T00:43:45.042Z,9.43
2022-08-20T00:48:50.586Z,9.45
2022-08-20T00:53:55.977Z,10.63
2022-08-20T00:58:58.684Z,10.10
2022-08-20T01:04:01.266Z,10.68
2022-08-20T01:09:06.143Z,11.93
2022-08-20T01:14:36.081Z,11.77
2022-08-20T01:19:42.744Z,11.50
2022-08-20T01:24:47.554Z,12.50
2022-08-20T01:29:52.634Z,13.02
2022-08-20T01:34:55.216Z,13.82
2022-08-20T01:45:04.355Z,12.85
2022-08-20T01:50:13.393Z,15.10
2022-08-20T01:55:16.032Z,14.30
2022-08-20T02:00:21.926Z,13.43
2022-08-20T02:05:24.953Z,14.88
2022-08-20T02:10:33.292Z,14.02
2022-08-20T02:15:39.772Z,15.20
2022-08-20T02:20:46.555Z,14.70
2022-08-20T02:25:49.290Z,14.77
2022-08-20T02:30:55.486Z,14.98
2022-08-20T02:35:58.817Z,13.98
2022-08-20T02:41:02.058Z,16.73
2022-08-20T02:46:06.942Z,15.50
2022-08-20T02:51:10.110Z,14.48
2022-08-20T02:56:13.229Z,14.93
2022-08-20T03:01:18.917Z,14.95
2022-08-20T03:06:21.994Z,15.63
2022-08-20T03:11:24.589Z,16.10
2022-08-20T03:16:28.547Z,16.33
2022-08-20T03:26:33.509Z,15.70
2022-08-20T03:31:37.588Z,15.60
2022-08-20T03:41:42.498Z,15.48
2022-08-20T03:46:46.341Z,14.90
2022-08-20T03:51:57.781Z,15.75
2022-08-20T03:57:02.677Z,16.70
2022-08-20T04:02:07.763Z,16.60
2022-08-20T04:12:14.902Z,17.45
2022-08-20T04:17:20.649Z,17.52
2022-08-20T04:22:25.111Z,17.75
2022-08-20T04:27:27.858Z,17.52
2022-08-20T04:32:31.870Z,16.83
2022-08-20T04:42:38.048Z,17.55
2022-08-20T04:47:43.114Z,16.90
2022-08-20T04:52:46.705Z,18.05
2022-08-20T04:57:49.456Z,16.33
2022-08-20T05:02:53.229Z,16.48
2022-08-20T05:07:56.938Z,17.98
2022-08-20T05:12:59.500Z,17.42
2022-08-20T05:18:05.698Z,16.88
2022-08-20T05:23:10.219Z,15.23
2022-08-20T05:28:17.694Z,15.60
2022-08-20T05:33:23.498Z,15.65
2022-08-20T05:38:31.078Z,15.80
2022-08-20T05:43:34.027Z,15.23
2022-08-20T05:48:37.834Z,15.25
2022-08-20T05:53:41.602Z,17.15
2022-08-20T05:58:44.055Z,15.38
2022-08-20T06:04:06.008Z,15.23
2022-08-20T06:09:08.849Z,14.07
2022-08-20T06:14:11.382Z,14.07
2022-08-20T06:19:15.450Z,14.73
2022-08-20T06:24:27.623Z,16.20
2022-08-20T06:29:33.247Z,16.08
2022-08-20T06:34:37.219Z,16.00
2022-08-20T06:44:42.155Z,15.95
2022-08-20T06:49:47.461Z,15.75
2022-08-20T06:54:50.081Z,15.93
2022-08-20T06:59:55.642Z,13.40
2022-08-20T07:04:59.605Z,12.85
2022-08-20T07:15:05.033Z,12.02
2022-08-20T07:20:13.183Z,12.25
2022-08-20T07:25:19.400Z,14.57
2022-08-20T07:30:56.895Z,14.63
2022-08-20T07:36:04.504Z,14.20
2022-08-20T07:41:49.048Z,12.23
2022-08-20T07:47:30.782Z,14.07
2022-08-20T07:52:57.186Z,14.52
2022-08-20T07:58:19.141Z,12.73
2022-08-20T08:03:39.449Z,14.18
2022-08-20T08:09:11.947Z,13.70
2022-08-20T08:14:14.922Z,12.70
2022-08-20T08:19:19.713Z,13.57
2022-08-20T08:24:28.171Z,12.85
2022-08-20T08:29:31.074Z,13.15
2022-08-20T08:34:35.998Z,11.27
2022-08-20T08:39:40.052Z,12.68
2022-08-20T08:44:42.990Z,13.07
2022-08-20T08:49:47.453Z,13.02
2022-08-20T08:54:55.406Z,12.88
2022-08-20T09:00:04.848Z,12.85
2022-08-20T09:05:15.654Z,12.95
2022-08-20T09:10:23.279Z,12.60
2022-08-20T09:15:26.002Z,13.35
2022-08-20T09:20:28.838Z,12.25
2022-08-20T09:25:32.835Z,11.95
2022-08-20T09:30:35.350Z,13.43
2022-08-20T09:35:40.210Z,12.43
2022-08-20T09:40:44.505Z,11.80
2022-08-20T09:45:47.017Z,12.77
2022-08-20T09:50:50.862Z,12.30
2022-08-20T09:55:56.701Z,12.70
2022-08-20T10:01:00.326Z,12.73
2022-08-20T10:06:03.073Z,12.18
2022-08-20T10:11:07.125Z,14.15
2022-08-20T10:16:09.714Z,12.63
2022-08-20T10:21:13.251Z,12.48
2022-08-20T10:26:17.412Z,12.80
2022-08-20T10:31:19.937Z,13.13
2022-08-20T10:36:22.392Z,12.45
2022-08-20T10:41:26.230Z,12.13
2022-08-20T10:46:28.869Z,10.40
2022-08-20T10:51:32.602Z,10.00
2022-08-20T10:56:36.982Z,10.30
2022-08-20T11:01:39.691Z,10.10
2022-08-20T11:06:42.425Z,10.17
2022-08-20T11:11:46.216Z,9.88
2022-08-20T11:16:48.748Z,9.57
2022-08-20T11:21:51.249Z,8.65
2022-08-20T11:26:55.276Z,9.32
2022-08-20T11:31:57.772Z,10.13
2022-08-20T11:37:00.478Z,7.72
2022-08-20T11:42:04.594Z,8.97
2022-08-20T11:47:08.792Z,8.32
2022-08-20T11:52:11.307Z,8.10
2022-08-20T11:57:21.320Z,8.02
2022-08-20T12:02:23.954Z,7.45
2022-08-20T12:07:28.413Z,7.50
2022-08-20T12:12:32.331Z,7.50
2022-08-20T12:17:35.623Z,8.13
2022-08-20T12:22:38.254Z,6.78
2022-08-20T12:27:42.594Z,8.27
2022-08-20T12:32:45.669Z,7.53
2022-08-20T12:37:48.529Z,7.75
2022-08-20T12:42:55.593Z,7.80
2022-08-20T12:48:05.964Z,8.52
2022-08-20T12:53:09.307Z,7.20
2022-08-20T12:58:13.674Z,8.73
2022-08-20T13:03:16.473Z,8.77
2022-08-20T13:08:19.449Z,9.10
2022-08-20T13:13:23.665Z,8.77
2022-08-20T13:18:26.151Z,8.90
2022-08-20T13:23:28.717Z,8.93
2022-08-20T13:28:32.914Z,7.53
2022-08-20T13:33:35.443Z,8.95
2022-08-20T13:38:37.938Z,7.95
2022-08-20T13:43:41.762Z,8.18
2022-08-20T13:48:44.558Z,8.27
2022-08-20T13:53:47.054Z,9.10
2022-08-20T13:58:51.235Z,8.07
2022-08-20T14:03:55.651Z,8.55
2022-08-20T14:08:58.766Z,8.33
2022-08-20T14:14:02.845Z,8.87
2022-08-20T14:19:05.536Z,8.13
2022-08-20T14:24:08.563Z,9.63
2022-08-20T14:29:12.385Z,10.57
2022-08-20T14:34:15.142Z,9.18
2022-08-20T14:39:20.412Z,9.50
2022-08-20T14:44:24.514Z,9.38
2022-08-20T14:49:27.036Z,7.78
2022-08-20T14:54:29.535Z,8.30
2022-08-20T14:59:34.010Z,9.40
2022-08-20T15:04:37.623Z,9.40
2022-08-20T15:09:40.172Z,9.00
2022-08-20T15:14:44.036Z,9.05
2022-08-20T15:19:50.995Z,9.55
2022-08-20T15:24:55.611Z,7.60
2022-08-20T15:30:01.826Z,8.57
2022-08-20T15:35:05.859Z,9.70
2022-08-20T15:40:10.251Z,9.15
2022-08-20T15:45:22.053Z,8.23
2022-08-20T15:50:42.011Z,8.00
2022-08-20T15:55:54.765Z,8.32
2022-08-20T16:01:23.747Z,8.02
2022-08-20T16:06:31.450Z,7.78
2022-08-20T16:11:45.591Z,8.30
2022-08-20T16:16:56.720Z,8.25
2022-08-20T16:22:06.776Z,7.25
2022-08-20T16:27:15.321Z,8.05
2022-08-20T16:32:33.027Z,8.30
2022-08-20T16:37:42.303Z,7.97
2022-08-20T16:42:48.034Z,13.77
2022-08-20T16:47:53.620Z,16.77
2022-08-20T16:52:56.384Z,13.75
2022-08-20T16:57:59.469Z,13.87
2022-08-20T17:03:06.464Z,13.27
2022-08-20T17:08:09.541Z,13.45
2022-08-20T17:13:23.851Z,12.67
2022-08-20T17:18:35.163Z,13.05
2022-08-20T17:23:55.232Z,14.25
2022-08-20T17:29:01.604Z,15.55
2022-08-20T17:34:06.029Z,14.77
2022-08-20T17:39:19.100Z,17.00
2022-08-20T17:44:24.278Z,16.55
2022-08-20T17:49:35.260Z,16.20
2022-08-20T17:54:42.167Z,16.77
2022-08-20T18:00:01.940Z,16.30
2022-08-20T18:05:20.431Z,17.02
2022-08-20T18:10:27.081Z,15.63
2022-08-20T18:15:32.744Z,16.08
2022-08-20T18:21:13.318Z,19.50
2022-08-20T18:26:20.693Z,17.55
2022-08-20T18:31:30.031Z,17.55
2022-08-20T18:36:34.414Z,19.50
2022-08-20T18:41:39.818Z,17.95
2022-08-20T18:46:54.048Z,19.65
2022-08-20T18:51:59.612Z,20.02
2022-08-20T18:57:07.349Z,20.05
2022-08-20T19:02:23.593Z,23.05
2022-08-20T19:07:47.973Z,23.20
2022-08-20T19:13:16.293Z,23.67
2022-08-20T19:18:25.648Z,23.27
2022-08-20T19:23:34.138Z,22.58
2022-08-20T19:28:44.578Z,23.05
2022-08-20T19:33:47.740Z,20.50
2022-08-20T19:38:57.712Z,22.83
2022-08-20T19:44:01.812Z,21.88
2022-08-20T19:49:19.207Z,21.55
2022-08-20T19:54:25.426Z,22.45
2022-08-20T19:59:28.356Z,22.35
2022-08-20T20:04:39.989Z,23.53
2022-08-20T20:09:46.206Z,23.63
2022-08-20T20:14:52.187Z,23.08
2022-08-20T20:19:59.199Z,22.95
2022-08-20T20:25:07.752Z,23.67
2022-08-20T20:30:13.781Z,23.75
2022-08-20T20:35:27.174Z,23.40
2022-08-20T20:40:36.123Z,22.33
2022-08-20T20:45:44.681Z,25.17
2022-08-20T20:50:48.466Z,22.17
2022-08-20T20:55:57.345Z,21.88
2022-08-20T21:00:59.880Z,23.02
2022-08-20T21:06:04.054Z,23.05
2022-08-20T21:11:07.984Z,23.38
2022-08-20T21:21:16.036Z,23.98
2022-08-20T21:26:19.989Z,24.42
2022-08-20T21:36:25.140Z,25.38
2022-08-20T21:41:29.960Z,26.23
2022-08-20T21:46:32.809Z,26.40
2022-08-20T21:51:36.048Z,26.40
2022-08-20T21:56:40.219Z,24.93
2022-08-20T22:01:43.266Z,22.92
2022-08-20T22:06:47.209Z,23.60
2022-08-20T22:11:54.574Z,24.83
2022-08-20T22:16:58.370Z,25.90
2022-08-20T22:22:01.288Z,22.60
2022-08-20T22:27:06.118Z,20.92
2022-08-20T22:32:08.698Z,22.95
2022-08-20T22:37:14.071Z,23.05
2022-08-20T22:42:18.297Z,23.80
2022-08-20T22:47:25.255Z,23.30
2022-08-20T22:52:27.966Z,23.48
2022-08-20T22:57:31.910Z,25.42
2022-08-20T23:02:37.144Z,22.65
2022-08-20T23:07:39.661Z,23.00
2022-08-20T23:12:43.530Z,22.75
2022-08-20T23:17:46.667Z,22.05
2022-08-20T23:22:49.137Z,22.40
2022-08-20T23:27:55.335Z,22.70
2022-08-20T23:32:58.102Z,21.63
2022-08-20T23:38:04.561Z,22.85
2022-08-20T23:43:08.446Z,23.08
2022-08-20T23:48:10.966Z,22.23
2022-08-20T23:53:13.502Z,22.83
2022-08-20T23:58:17.445Z,22.88
